Terminal Aerodrome Forecast
Issued by NWS Binghamton, NY

Home | Current Version | Previous Version | Text Only | Print | Product List | Glossary On
Versions: 1 2 3 4 5 6 7 8 9 10 11 12 13 14 15 16 17 18
000
FTUS41 KBGM 131700
TAFAVP
TAF
KAVP 131740Z 1318/1418 22010G20KT P6SM BKN050
      TEMPO 1322/1324 27015G40KT 2SM -TSRA OVC050CB
     FM140000 24005KT P6SM BKN040
     FM140600 21003KT 4SM BR SCT025
     FM141300 20005KT P6SM SCT050=

USA.gov is the U.S. government's official web portal to all federal, state and local government web resources and services.